首页
METAR-TAF:

METAR-TAF

机场 :

成都双流国际机场

成都, 中华人民共和国

纬度: 30-40N, 经度: 104-01E, 海拔: 508米

当前天气观测

该预报发布于18分钟前的00:00 UTC
风速2节,风向多变
温度 14°C
湿度 72%
气压 1017 hPa
能見度: 8000
散云层高于5000英尺

METAR: ZUUU 150000Z VRB01MPS 8000 SCT050 14/09 Q1017 NOSIG

时间: 08:18 (00:18 UTC)

预报

该预报发布于4小时和14分钟前的20:04 UTC
预报有效从15日的 00点(UTC)到 15日的 24点(UTC)
风速6节,风向南转西南
能見度: 5000
散云层高于5000英尺
轻雾

TAF: ZUUU 142004Z 1500/1524 20003MPS 5000 BR SCT050 TX20/1507Z TN10/1522Z

超过4000个机场的气象观测和天气预报(METAR&TAF报告)。

可查询的气象台以黄色和红色小点在地图上表示。

将鼠标移到小点上方,可查看气象台名称。

然后点击查看天气观测和预报。

如需切换地图:点击带黑十字的绿色按钮放大地图;点击带横线的绿色按钮缩小地图;或者点击绿色箭头查看邻近地区的地图。


METAR-TAF: